Time;durP1;ratioP1;P1;durP2;ratioP2;P2;SDS_P1;SDS_P2;PMS_P1;PMS_P2;Temp;Humidity;BMP_temperature;BMP_pressure;BME280_temperature;BME280_humidity;BME280_pressure;Samples;Min_cycle;Max_cycle;Signal;HPM_P1;HPM_P2
2023/08/26 00:01:39;;;;;;;;;;;16.80;99.90;;;;;;7320299;19;9116;-83
2023/08/26 00:04:09;;;;;;;;;;;16.80;99.90;;;;;;7322899;19;9158;-83
2023/08/26 00:06:38;;;;;;;;;;;16.80;99.90;;;;;;7322926;19;9251;-83
2023/08/26 00:09:07;;;;;;;;;;;16.70;99.90;;;;;;7321558;19;9173;-83
2023/08/26 00:11:36;;;;;;;;;;;16.70;99.90;;;;;;7323268;19;9209;-84
2023/08/26 00:14:06;;;;;;;;;;;16.80;99.90;;;;;;7322884;19;9165;-83
2023/08/26 00:16:35;;;;;;;;;;;16.80;99.90;;;;;;7323012;19;9180;-83
2023/08/26 00:19:06;;;;;;;;;;;16.90;99.90;;;;;;7322987;19;10435;-83
2023/08/26 00:21:35;;;;;;;;;;;16.90;99.90;;;;;;7322306;19;9279;-83
2023/08/26 00:24:06;;;;;;;;;;;16.90;99.90;;;;;;7323496;19;9272;-83
2023/08/26 00:26:55;;;;;;;;;;;16.90;99.90;;;;;;7321163;19;9320;-83
2023/08/26 00:29:24;;;;;;;;;;;16.90;99.90;;;;;;7322599;19;8948;-83
2023/08/26 00:31:53;;;;;;;;;;;16.90;99.90;;;;;;7322335;19;9409;-82
2023/08/26 00:34:24;;;;;;;;;;;16.90;99.90;;;;;;7322500;19;9209;-83
2023/08/26 00:36:53;;;;;;;;;;;16.80;99.90;;;;;;7322516;19;9482;-82
2023/08/26 00:39:22;;;;;;;;;;;16.80;99.90;;;;;;7322553;19;9685;-83
2023/08/26 00:41:51;;;;;;;;;;;16.70;99.90;;;;;;7321332;19;9309;-83
2023/08/26 00:44:20;;;;;;;;;;;16.80;99.90;;;;;;7322294;19;9205;-83
2023/08/26 00:46:49;;;;;;;;;;;16.80;99.90;;;;;;7320880;19;9542;-83
2023/08/26 00:49:20;;;;;;;;;;;16.80;99.90;;;;;;7321872;19;9066;-83
2023/08/26 00:51:52;;;;;;;;;;;16.70;99.90;;;;;;7322288;19;9718;-83
2023/08/26 00:54:22;;;;;;;;;;;16.80;99.90;;;;;;7321827;19;9410;-83
2023/08/26 00:56:51;;;;;;;;;;;16.80;99.90;;;;;;7321728;19;9691;-83
2023/08/26 00:59:20;;;;;;;;;;;16.80;99.90;;;;;;7321742;19;9160;-83
2023/08/26 01:01:51;;;;;;;;;;;16.90;99.90;;;;;;7320431;19;9171;-83
2023/08/26 01:04:20;;;;;;;;;;;17.00;99.90;;;;;;7321498;19;9329;-83
2023/08/26 01:06:52;;;;;;;;;;;17.00;99.90;;;;;;7321323;19;9216;-83
2023/08/26 01:09:21;;;;;;;;;;;17.10;99.90;;;;;;7319656;19;9304;-83
2023/08/26 01:12:00;;;;;;;;;;;17.10;99.90;;;;;;7324544;19;9272;-83
2023/08/26 01:15:00;;;;;;;;;;;17.10;99.90;;;;;;7327007;19;9539;-83
2023/08/26 01:17:30;;;;;;;;;;;17.10;99.90;;;;;;7328576;19;8945;-83
2023/08/26 01:20:02;;;;;;;;;;;17.20;99.90;;;;;;7328087;19;9222;-83
2023/08/26 01:22:39;;;;;;;;;;;17.20;99.90;;;;;;7326667;19;9205;-83
2023/08/26 01:25:11;;;;;;;;;;;17.30;99.90;;;;;;7327946;19;9177;-83
2023/08/26 01:27:40;;;;;;;;;;;17.20;99.90;;;;;;7328127;19;9274;-83
2023/08/26 01:30:14;;;;;;;;;;;17.20;99.90;;;;;;7327876;19;9191;-83
2023/08/26 01:32:51;;;;;;;;;;;17.10;99.90;;;;;;7328921;19;9518;-83
2023/08/26 01:35:28;;;;;;;;;;;17.10;99.90;;;;;;7328051;19;9704;-83
2023/08/26 01:38:18;;;;;;;;;;;17.00;99.90;;;;;;7326649;19;9189;-83
2023/08/26 01:40:56;;;;;;;;;;;17.00;99.90;;;;;;7327954;19;9193;-83
2023/08/26 01:43:27;;;;;;;;;;;17.00;99.90;;;;;;7327909;19;9212;-83
2023/08/26 01:45:56;;;;;;;;;;;17.00;99.90;;;;;;7325123;19;10702;-83
2023/08/26 01:48:25;;;;;;;;;;;17.00;99.90;;;;;;7327498;19;9444;-83
2023/08/26 01:50:54;;;;;;;;;;;17.00;99.90;;;;;;7327418;19;9357;-83
2023/08/26 01:53:23;;;;;;;;;;;17.00;99.90;;;;;;7327144;19;9165;-83
2023/08/26 01:55:54;;;;;;;;;;;16.90;99.90;;;;;;7327238;19;10365;-83
2023/08/26 01:58:23;;;;;;;;;;;16.90;99.90;;;;;;7326999;19;9222;-83
2023/08/26 02:00:52;;;;;;;;;;;16.80;99.90;;;;;;7327044;19;9508;-83
2023/08/26 02:03:21;;;;;;;;;;;16.80;99.90;;;;;;7324567;19;9177;-83
2023/08/26 02:05:50;;;;;;;;;;;16.80;99.90;;;;;;7326715;19;9169;-83
2023/08/26 02:08:19;;;;;;;;;;;16.90;99.90;;;;;;7325792;19;9173;-83
2023/08/26 02:10:58;;;;;;;;;;;16.90;99.90;;;;;;7326360;19;9273;-83
2023/08/26 02:13:28;;;;;;;;;;;16.90;99.90;;;;;;7326535;19;9177;-83
2023/08/26 02:15:58;;;;;;;;;;;16.80;99.90;;;;;;7324569;19;9254;-82
2023/08/26 02:18:27;;;;;;;;;;;16.80;99.90;;;;;;7326862;19;9457;-83
2023/08/26 02:20:56;;;;;;;;;;;16.80;99.90;;;;;;7326237;19;9230;-82
2023/08/26 02:23:25;;;;;;;;;;;16.80;99.90;;;;;;7326622;19;9711;-83
2023/08/26 02:25:57;;;;;;;;;;;16.70;99.90;;;;;;7326173;19;9520;-83
2023/08/26 02:28:26;;;;;;;;;;;16.70;99.90;;;;;;7325989;19;9406;-83
2023/08/26 02:30:55;;;;;;;;;;;16.80;99.90;;;;;;7325925;19;9461;-83
2023/08/26 02:33:26;;;;;;;;;;;16.80;99.90;;;;;;7325738;19;9517;-83
2023/08/26 02:35:55;;;;;;;;;;;16.90;99.90;;;;;;7326001;19;9244;-82
2023/08/26 02:38:25;;;;;;;;;;;16.80;99.90;;;;;;7325711;19;9345;-83
2023/08/26 02:40:55;;;;;;;;;;;16.80;99.90;;;;;;7325594;19;9177;-83
2023/08/26 02:43:26;;;;;;;;;;;16.70;99.90;;;;;;7323627;19;9196;-83
2023/08/26 02:45:56;;;;;;;;;;;16.80;99.90;;;;;;7325184;19;9477;-83
2023/08/26 02:48:26;;;;;;;;;;;16.60;99.90;;;;;;7325314;19;9476;-83
2023/08/26 02:50:57;;;;;;;;;;;16.50;99.90;;;;;;7325420;19;9008;-83
2023/08/26 02:53:27;;;;;;;;;;;16.50;99.90;;;;;;7325583;19;9348;-83
2023/08/26 02:55:57;;;;;;;;;;;16.60;99.90;;;;;;7325191;19;9373;-82
2023/08/26 02:58:29;;;;;;;;;;;16.50;99.90;;;;;;7325107;19;9508;-83
2023/08/26 03:01:19;;;;;;;;;;;16.50;99.90;;;;;;7323713;19;9283;-83
2023/08/26 03:03:48;;;;;;;;;;;16.60;99.90;;;;;;7325003;19;9233;-82
2023/08/26 03:06:17;;;;;;;;;;;16.50;99.90;;;;;;7325283;19;9513;-83
2023/08/26 03:08:46;;;;;;;;;;;16.70;99.90;;;;;;7324100;19;9177;-83
2023/08/26 03:11:15;;;;;;;;;;;16.50;99.90;;;;;;7324759;19;9457;-82
2023/08/26 03:13:46;;;;;;;;;;;16.40;99.90;;;;;;7324933;19;9531;-82
2023/08/26 03:16:15;;;;;;;;;;;16.40;99.90;;;;;;7324768;19;9178;-82
2023/08/26 03:18:44;;;;;;;;;;;16.40;99.90;;;;;;7324671;19;9191;-82
2023/08/26 03:21:14;;;;;;;;;;;16.30;99.90;;;;;;7324472;19;9212;-82
2023/08/26 03:23:43;;;;;;;;;;;16.20;99.90;;;;;;7326345;19;9180;-82
2023/08/26 03:26:13;;;;;;;;;;;16.20;99.90;;;;;;7324179;19;9139;-82
2023/08/26 03:28:42;;;;;;;;;;;16.20;99.90;;;;;;7323945;19;9271;-82
2023/08/26 03:31:13;;;;;;;;;;;16.30;99.90;;;;;;7323864;19;9496;-82
2023/08/26 03:33:42;;;;;;;;;;;16.20;99.90;;;;;;7324163;19;11168;-82
2023/08/26 03:36:11;;;;;;;;;;;16.20;99.90;;;;;;7321555;19;9201;-82
2023/08/26 03:38:40;;;;;;;;;;;16.00;99.90;;;;;;7324588;19;9213;-82
2023/08/26 03:41:10;;;;;;;;;;;15.80;99.90;;;;;;7324121;19;9177;-82
2023/08/26 03:43:39;;;;;;;;;;;15.70;99.90;;;;;;7320897;19;9254;-82
2023/08/26 03:46:08;;;;;;;;;;;15.70;99.90;;;;;;7323476;19;9489;-81
2023/08/26 03:48:39;;;;;;;;;;;15.60;99.90;;;;;;7323241;19;9222;-82
2023/08/26 03:51:08;;;;;;;;;;;15.60;99.90;;;;;;7323500;19;9214;-81
2023/08/26 03:53:37;;;;;;;;;;;15.50;99.90;;;;;;7323315;19;9173;-82
2023/08/26 03:56:06;;;;;;;;;;;15.50;99.90;;;;;;7323268;19;9693;-82
2023/08/26 03:58:35;;;;;;;;;;;15.50;99.90;;;;;;7323224;19;9633;-82
2023/08/26 04:01:06;;;;;;;;;;;15.50;99.90;;;;;;7323059;19;9464;-82
2023/08/26 04:03:38;;;;;;;;;;;15.50;99.90;;;;;;7321818;19;9188;-82
2023/08/26 04:06:08;;;;;;;;;;;15.60;99.90;;;;;;7323248;19;9193;-82
2023/08/26 04:08:37;;;;;;;;;;;15.50;99.90;;;;;;7322134;19;9170;-82
2023/08/26 04:11:06;;;;;;;;;;;15.50;99.90;;;;;;7322867;19;9016;-83
2023/08/26 04:13:34;;;;;;;;;;;15.40;99.90;;;;;;7322971;19;9297;-82
2023/08/26 04:16:04;;;;;;;;;;;15.40;99.90;;;;;;7322738;19;9193;-82
2023/08/26 04:18:33;;;;;;;;;;;15.30;99.90;;;;;;7322788;19;9135;-82
2023/08/26 04:21:06;;;;;;;;;;;15.30;99.90;;;;;;7322759;19;9648;-82
2023/08/26 04:23:34;;;;;;;;;;;15.20;99.90;;;;;;7325358;19;9157;-82
2023/08/26 04:26:04;;;;;;;;;;;15.10;99.90;;;;;;7322882;19;9195;-82
2023/08/26 04:28:34;;;;;;;;;;;15.00;99.90;;;;;;7323289;19;9278;-82
2023/08/26 04:31:03;;;;;;;;;;;15.00;99.90;;;;;;7322676;19;9209;-82
2023/08/26 04:33:32;;;;;;;;;;;14.90;99.90;;;;;;7322413;19;9169;-83
2023/08/26 04:36:01;;;;;;;;;;;14.90;99.90;;;;;;7322749;19;9121;-82
2023/08/26 04:38:33;;;;;;;;;;;14.80;99.90;;;;;;7322120;19;9530;-83
2023/08/26 04:41:02;;;;;;;;;;;14.90;99.90;;;;;;7322447;19;9231;-82
2023/08/26 04:43:31;;;;;;;;;;;14.90;99.90;;;;;;7321092;19;8944;-82
2023/08/26 04:46:00;;;;;;;;;;;14.80;99.90;;;;;;7322076;19;9463;-82
2023/08/26 04:48:31;;;;;;;;;;;14.80;99.90;;;;;;7329691;19;9189;-82
2023/08/26 04:51:00;;;;;;;;;;;14.70;99.90;;;;;;7329617;19;9123;-82
2023/08/26 04:53:30;;;;;;;;;;;14.70;99.90;;;;;;7329329;19;9185;-82
2023/08/26 04:56:01;;;;;;;;;;;14.70;99.90;;;;;;7329441;19;9267;-82
2023/08/26 04:58:30;;;;;;;;;;;14.70;99.90;;;;;;7329192;19;9177;-82
2023/08/26 05:01:00;;;;;;;;;;;14.70;99.90;;;;;;7329077;19;9108;-82
2023/08/26 05:03:29;;;;;;;;;;;14.70;99.90;;;;;;7327304;19;9361;-82
2023/08/26 05:05:58;;;;;;;;;;;14.70;99.90;;;;;;7328709;19;9188;-82
2023/08/26 05:08:27;;;;;;;;;;;14.70;99.90;;;;;;7327773;19;9458;-82
2023/08/26 05:10:56;;;;;;;;;;;14.70;99.90;;;;;;7328595;19;9960;-82
2023/08/26 05:13:27;;;;;;;;;;;14.70;99.90;;;;;;7328766;19;9272;-82
2023/08/26 05:15:56;;;;;;;;;;;14.80;99.90;;;;;;7328284;19;9304;-83
2023/08/26 05:18:25;;;;;;;;;;;14.80;99.90;;;;;;7328471;19;9201;-82
2023/08/26 05:20:54;;;;;;;;;;;14.80;99.90;;;;;;7329501;19;9498;-82
2023/08/26 05:23:23;;;;;;;;;;;14.90;99.90;;;;;;7326783;19;9457;-82
2023/08/26 05:25:52;;;;;;;;;;;14.90;99.90;;;;;;7328071;19;9214;-82
2023/08/26 05:28:21;;;;;;;;;;;14.80;99.90;;;;;;7328186;19;9219;-83
2023/08/26 05:30:53;;;;;;;;;;;14.90;99.90;;;;;;7327843;19;9221;-82
2023/08/26 05:33:25;;;;;;;;;;;14.90;99.90;;;;;;7328097;19;9189;-83
2023/08/26 05:35:53;;;;;;;;;;;15.00;99.90;;;;;;7328132;19;9743;-82
2023/08/26 05:38:22;;;;;;;;;;;15.00;99.90;;;;;;7328017;19;9235;-83
2023/08/26 05:40:51;;;;;;;;;;;15.20;99.90;;;;;;7327946;19;10328;-83
2023/08/26 05:43:20;;;;;;;;;;;15.30;99.90;;;;;;7326461;19;9181;-82
2023/08/26 05:45:49;;;;;;;;;;;15.40;99.90;;;;;;7328051;19;10213;-83
2023/08/26 05:48:21;;;;;;;;;;;15.40;99.90;;;;;;7328717;19;9355;-83
2023/08/26 05:50:50;;;;;;;;;;;15.30;99.90;;;;;;7329253;19;9147;-83
2023/08/26 05:53:18;;;;;;;;;;;15.30;99.90;;;;;;7327834;19;9201;-83
2023/08/26 05:55:49;;;;;;;;;;;15.30;99.90;;;;;;7327250;19;9187;-82
2023/08/26 05:58:18;;;;;;;;;;;15.30;99.90;;;;;;7325067;19;9180;-82
2023/08/26 06:00:47;;;;;;;;;;;15.30;99.90;;;;;;7326846;19;9209;-83
2023/08/26 06:03:16;;;;;;;;;;;15.30;99.90;;;;;;7325729;19;9272;-83
2023/08/26 06:05:48;;;;;;;;;;;15.40;99.90;;;;;;7326878;19;9196;-82
2023/08/26 06:08:17;;;;;;;;;;;15.50;99.90;;;;;;7325612;19;9157;-82
2023/08/26 06:10:46;;;;;;;;;;;15.60;99.90;;;;;;7326177;19;10313;-83
2023/08/26 06:13:15;;;;;;;;;;;15.60;99.90;;;;;;7326704;19;9626;-83
2023/08/26 06:15:47;;;;;;;;;;;15.60;99.90;;;;;;7326280;19;9523;-83
2023/08/26 06:18:16;;;;;;;;;;;15.70;99.90;;;;;;7326604;19;9186;-83
2023/08/26 06:20:47;;;;;;;;;;;15.70;99.90;;;;;;7327461;19;9007;-83
2023/08/26 06:23:16;;;;;;;;;;;15.80;99.90;;;;;;7325351;19;9192;-83
2023/08/26 06:25:53;;;;;;;;;;;15.80;99.90;;;;;;7325953;19;9165;-83
2023/08/26 06:28:22;;;;;;;;;;;15.80;99.90;;;;;;7325999;19;9478;-83
2023/08/26 06:30:52;;;;;;;;;;;15.90;99.90;;;;;;7325758;19;9205;-82
2023/08/26 06:33:21;;;;;;;;;;;16.00;99.90;;;;;;7325590;19;9201;-83
2023/08/26 06:35:52;;;;;;;;;;;16.00;99.90;;;;;;7326079;19;9508;-83
2023/08/26 06:38:21;;;;;;;;;;;16.00;99.90;;;;;;7325619;19;9210;-82
2023/08/26 06:40:56;;;;;;;;;;;16.10;99.90;;;;;;7325491;19;9196;-83
2023/08/26 06:43:25;;;;;;;;;;;16.20;99.90;;;;;;7324634;19;9440;-83
2023/08/26 06:45:54;;;;;;;;;;;16.50;99.90;;;;;;7324710;19;10364;-83
2023/08/26 06:48:43;;;;;;;;;;;16.60;99.90;;;;;;7323840;19;9272;-83
2023/08/26 06:51:15;;;;;;;;;;;16.70;99.90;;;;;;7325130;19;9232;-83
2023/08/26 06:53:44;;;;;;;;;;;16.80;99.90;;;;;;7324809;19;9198;-83
2023/08/26 06:56:13;;;;;;;;;;;16.80;99.90;;;;;;7324796;19;9172;-83
2023/08/26 06:58:43;;;;;;;;;;;16.90;99.90;;;;;;7323637;19;9580;-83
2023/08/26 07:01:12;;;;;;;;;;;17.00;99.90;;;;;;7324950;19;10243;-83
2023/08/26 07:03:42;;;;;;;;;;;17.10;99.90;;;;;;7323849;19;9189;-82
2023/08/26 07:06:11;;;;;;;;;;;17.10;99.90;;;;;;7324663;19;9420;-82
2023/08/26 07:08:42;;;;;;;;;;;17.30;99.90;;;;;;7323409;19;9357;-83
2023/08/26 07:11:12;;;;;;;;;;;17.30;99.90;;;;;;7324665;19;9335;-82
2023/08/26 07:13:41;;;;;;;;;;;17.20;99.90;;;;;;7324508;19;9217;-83
2023/08/26 07:16:10;;;;;;;;;;;17.30;99.90;;;;;;7324358;19;8992;-83
2023/08/26 07:18:39;;;;;;;;;;;17.40;99.90;;;;;;7324374;19;9181;-83
2023/08/26 07:21:08;;;;;;;;;;;17.40;99.90;;;;;;7326026;19;9325;-83
2023/08/26 07:23:38;;;;;;;;;;;17.30;99.90;;;;;;7323422;19;9287;-83
2023/08/26 07:26:09;;;;;;;;;;;17.30;99.90;;;;;;7323961;19;9486;-83
2023/08/26 07:28:38;;;;;;;;;;;17.40;99.90;;;;;;7323913;19;9195;-82
2023/08/26 07:31:09;;;;;;;;;;;17.30;99.90;;;;;;7323710;19;9220;-83
2023/08/26 07:33:38;;;;;;;;;;;17.30;99.90;;;;;;7323663;19;9208;-83
2023/08/26 07:36:10;;;;;;;;;;;17.40;99.90;;;;;;7323876;19;9185;-83
2023/08/26 07:38:41;;;;;;;;;;;17.40;99.90;;;;;;7323801;19;9566;-83
2023/08/26 07:41:12;;;;;;;;;;;17.50;99.90;;;;;;7323621;19;9410;-83
2023/08/26 07:43:41;;;;;;;;;;;17.70;99.90;;;;;;7322969;19;9249;-83
2023/08/26 07:46:10;;;;;;;;;;;17.90;99.90;;;;;;7322844;19;9290;-83
2023/08/26 07:48:39;;;;;;;;;;;17.90;99.90;;;;;;7323490;19;10342;-83
2023/08/26 07:51:08;;;;;;;;;;;18.00;99.90;;;;;;7323725;19;9396;-83
2023/08/26 07:53:37;;;;;;;;;;;18.00;99.90;;;;;;7324975;19;9198;-82
2023/08/26 07:56:06;;;;;;;;;;;18.00;99.90;;;;;;7328225;19;9136;-81
2023/08/26 07:58:38;;;;;;;;;;;18.10;99.90;;;;;;7329493;19;9193;-83
2023/08/26 08:01:07;;;;;;;;;;;18.10;99.90;;;;;;7326903;19;8944;-83
2023/08/26 08:03:36;;;;;;;;;;;18.10;99.90;;;;;;7323101;19;9403;-83
2023/08/26 08:06:05;;;;;;;;;;;18.30;99.90;;;;;;7323493;19;9400;-83
2023/08/26 08:08:34;;;;;;;;;;;18.40;99.90;;;;;;7322321;19;9186;-82
2023/08/26 08:11:03;;;;;;;;;;;18.40;99.90;;;;;;7323062;19;9130;-83
2023/08/26 08:13:55;;;;;;;;;;;18.50;99.90;;;;;;7321665;19;9483;-82
2023/08/26 08:16:24;;;;;;;;;;;18.60;99.90;;;;;;7322738;19;9132;-83
2023/08/26 08:18:53;;;;;;;;;;;18.70;99.90;;;;;;7323158;19;9211;-82
2023/08/26 08:21:22;;;;;;;;;;;18.80;99.90;;;;;;7326869;19;9178;-83
2023/08/26 08:23:51;;;;;;;;;;;19.00;99.90;;;;;;7329397;19;9497;-83
2023/08/26 08:26:20;;;;;;;;;;;19.00;99.90;;;;;;7330180;19;9191;-83
2023/08/26 08:28:49;;;;;;;;;;;19.30;99.90;;;;;;7330043;19;9198;-83
2023/08/26 08:31:21;;;;;;;;;;;19.30;99.90;;;;;;7329713;19;9205;-82
2023/08/26 08:33:50;;;;;;;;;;;19.50;99.90;;;;;;7329812;19;9183;-83
2023/08/26 08:36:19;;;;;;;;;;;19.40;99.90;;;;;;7329314;19;9235;-83
2023/08/26 08:38:48;;;;;;;;;;;19.40;99.90;;;;;;7329478;19;9176;-82
2023/08/26 08:41:18;;;;;;;;;;;19.50;99.90;;;;;;7329504;19;9336;-83
2023/08/26 08:44:13;;;;;;;;;;;19.40;99.90;;;;;;7327036;19;9189;-83
2023/08/26 08:46:46;;;;;;;;;;;19.30;99.90;;;;;;7327911;19;9238;-83
2023/08/26 08:49:16;;;;;;;;;;;19.40;99.90;;;;;;7329262;19;9236;-82
2023/08/26 08:51:45;;;;;;;;;;;19.20;99.90;;;;;;7329275;19;9217;-83
2023/08/26 08:54:14;;;;;;;;;;;19.30;99.90;;;;;;7328847;19;9165;-83
2023/08/26 08:56:45;;;;;;;;;;;19.60;99.90;;;;;;7329097;19;9811;-82
2023/08/26 08:59:14;;;;;;;;;;;19.60;99.90;;;;;;7328929;19;9185;-83
2023/08/26 09:01:47;;;;;;;;;;;19.70;99.90;;;;;;7328692;19;9245;-83
2023/08/26 09:04:17;;;;;;;;;;;19.80;99.90;;;;;;7327664;19;9173;-83
2023/08/26 09:06:47;;;;;;;;;;;19.80;99.90;;;;;;7328828;19;9633;-83
2023/08/26 09:09:18;;;;;;;;;;;20.00;99.90;;;;;;7326556;19;9189;-83
2023/08/26 09:11:48;;;;;;;;;;;20.00;99.90;;;;;;7328633;19;9156;-82
2023/08/26 09:14:18;;;;;;;;;;;20.10;99.90;;;;;;7328923;19;10320;-83
2023/08/26 09:17:21;;;;;;;;;;;20.20;99.90;;;;;;7326934;19;9277;-83
2023/08/26 09:19:58;;;;;;;;;;;20.30;99.90;;;;;;7328133;19;9177;-82
2023/08/26 09:22:28;;;;;;;;;;;20.40;99.90;;;;;;7328376;19;8945;-82
2023/08/26 09:24:58;;;;;;;;;;;20.40;99.90;;;;;;7326383;19;9209;-83
2023/08/26 09:27:27;;;;;;;;;;;20.50;99.90;;;;;;7328078;19;9213;-82
2023/08/26 09:29:57;;;;;;;;;;;20.50;99.90;;;;;;7327796;19;8944;-82
2023/08/26 09:32:40;;;;;;;;;;;20.50;99.90;;;;;;7326186;19;9168;-82
2023/08/26 09:35:13;;;;;;;;;;;20.50;99.90;;;;;;7327335;19;10159;-82
2023/08/26 09:37:44;;;;;;;;;;;20.50;99.90;;;;;;7328037;19;9016;-82
2023/08/26 09:40:16;;;;;;;;;;;20.60;99.90;;;;;;7327864;19;8989;-83
2023/08/26 09:42:47;;;;;;;;;;;20.70;99.90;;;;;;7327466;19;9301;-83
2023/08/26 09:45:17;;;;;;;;;;;20.80;99.90;;;;;;7326011;19;8945;-83
2023/08/26 09:47:51;;;;;;;;;;;20.90;99.90;;;;;;7325209;19;9198;-83
2023/08/26 09:50:32;;;;;;;;;;;20.90;99.90;;;;;;7327362;19;9263;-82
2023/08/26 09:53:02;;;;;;;;;;;20.90;99.90;;;;;;7327521;19;9713;-82
2023/08/26 09:55:32;;;;;;;;;;;20.80;99.90;;;;;;7327165;19;9208;-82
2023/08/26 09:58:01;;;;;;;;;;;20.90;99.90;;;;;;7327141;19;9215;-82
2023/08/26 10:00:50;;;;;;;;;;;20.90;99.90;;;;;;7326326;19;9404;-83
2023/08/26 10:03:26;;;;;;;;;;;20.80;99.90;;;;;;7329155;19;9201;-82
2023/08/26 10:05:59;;;;;;;;;;;20.80;99.90;;;;;;7325490;19;9274;-82
2023/08/26 10:08:35;;;;;;;;;;;20.90;99.90;;;;;;7326092;19;9255;-82
2023/08/26 10:11:09;;;;;;;;;;;20.90;99.90;;;;;;7326634;19;9232;-82
2023/08/26 10:13:39;;;;;;;;;;;21.10;99.90;;;;;;7326747;19;9221;-83
2023/08/26 10:16:10;;;;;;;;;;;21.30;99.90;;;;;;7326378;19;9188;-82
2023/08/26 10:18:47;;;;;;;;;;;21.20;99.90;;;;;;7326693;19;9206;-82
2023/08/26 10:21:16;;;;;;;;;;;21.40;99.90;;;;;;7329091;19;9169;-83
2023/08/26 10:23:46;;;;;;;;;;;21.30;99.90;;;;;;7326196;19;9183;-82
2023/08/26 10:26:16;;;;;;;;;;;21.30;99.90;;;;;;7324062;19;9260;-83
2023/08/26 10:28:47;;;;;;;;;;;21.30;99.90;;;;;;7326137;19;9481;-83
2023/08/26 10:31:17;;;;;;;;;;;21.10;99.90;;;;;;7326170;19;9137;-83
2023/08/26 10:34:16;;;;;;;;;;;21.20;99.90;;;;;;7326122;19;9268;-82
2023/08/26 10:36:49;;;;;;;;;;;21.40;99.90;;;;;;7326298;19;9623;-82
2023/08/26 10:39:20;;;;;;;;;;;21.40;99.90;;;;;;7326207;19;9264;-83
2023/08/26 10:42:16;;;;;;;;;;;21.50;99.90;;;;;;7326047;19;9181;-83
2023/08/26 10:44:47;;;;;;;;;;;21.60;99.90;;;;;;7324257;19;10406;-83
2023/08/26 10:47:38;;;;;;;;;;;21.50;99.90;;;;;;7323828;19;9019;-83
2023/08/26 10:50:21;;;;;;;;;;;21.80;99.90;;;;;;7325470;19;9314;-82
2023/08/26 10:52:53;;;;;;;;;;;22.20;99.90;;;;;;7325412;19;9236;-83
2023/08/26 10:55:24;;;;;;;;;;;22.30;99.90;;;;;;7325401;19;9242;-83
2023/08/26 10:58:12;;;;;;;;;;;22.40;99.80;;;;;;7325419;19;9162;-83
2023/08/26 11:00:43;;;;;;;;;;;22.40;98.00;;;;;;7325508;19;9535;-83
2023/08/26 11:03:14;;;;;;;;;;;22.30;99.40;;;;;;7325407;19;9157;-82
2023/08/26 11:05:47;;;;;;;;;;;22.10;99.90;;;;;;7323686;19;9468;-83
2023/08/26 11:08:40;;;;;;;;;;;21.90;99.90;;;;;;7322476;19;9210;-83
2023/08/26 11:11:14;;;;;;;;;;;21.90;99.90;;;;;;7324897;19;9582;-83
2023/08/26 11:13:43;;;;;;;;;;;22.10;99.90;;;;;;7324749;19;9249;-83
2023/08/26 11:16:12;;;;;;;;;;;22.20;99.90;;;;;;7324391;19;9167;-84
2023/08/26 11:18:42;;;;;;;;;;;22.40;99.00;;;;;;7324566;19;9130;-83
2023/08/26 11:21:37;;;;;;;;;;;22.50;99.20;;;;;;7323151;19;10167;-83
2023/08/26 11:24:07;;;;;;;;;;;22.80;98.80;;;;;;7324271;19;9165;-83
2023/08/26 11:26:56;;;;;;;;;;;22.80;98.70;;;;;;7322523;19;9320;-83
2023/08/26 11:29:25;;;;;;;;;;;22.60;96.60;;;;;;7324138;19;9111;-83
2023/08/26 11:32:14;;;;;;;;;;;21.90;85.90;;;;;;7322638;19;9181;-83
2023/08/26 11:34:45;;;;;;;;;;;21.10;90.40;;;;;;7322683;19;10414;-83
2023/08/26 11:37:44;;;;;;;;;;;20.70;94.70;;;;;;7322606;19;9545;-83
2023/08/26 11:40:15;;;;;;;;;;;20.00;97.40;;;;;;7323774;19;9339;-83
2023/08/26 11:42:45;;;;;;;;;;;19.60;98.50;;;;;;7323884;19;8968;-83
2023/08/26 11:45:14;;;;;;;;;;;19.30;99.90;;;;;;7322855;19;9465;-83
2023/08/26 11:48:03;;;;;;;;;;;18.90;99.90;;;;;;7320428;19;9428;-83
2023/08/26 11:50:34;;;;;;;;;;;18.70;99.90;;;;;;7323480;19;9138;-83
2023/08/26 11:53:07;;;;;;;;;;;18.60;99.90;;;;;;7323443;19;9211;-83
2023/08/26 11:55:37;;;;;;;;;;;18.40;99.90;;;;;;7322017;19;9249;-83
2023/08/26 11:58:07;;;;;;;;;;;18.40;99.90;;;;;;7322951;19;9220;-83
2023/08/26 12:00:38;;;;;;;;;;;18.40;99.90;;;;;;7323180;19;9487;-83
2023/08/26 12:03:08;;;;;;;;;;;18.40;99.90;;;;;;7323294;19;9463;-83
2023/08/26 12:05:45;;;;;;;;;;;18.50;99.90;;;;;;7322654;19;9208;-83
2023/08/26 12:08:21;;;;;;;;;;;18.60;99.90;;;;;;7324535;19;9200;-83
2023/08/26 12:10:51;;;;;;;;;;;18.60;99.90;;;;;;7324220;19;9296;-83
2023/08/26 12:13:22;;;;;;;;;;;18.60;99.90;;;;;;7322828;19;9236;-83
2023/08/26 12:15:52;;;;;;;;;;;18.80;99.90;;;;;;7323136;19;9214;-83
2023/08/26 12:18:23;;;;;;;;;;;18.90;99.90;;;;;;7322829;19;9207;-82
2023/08/26 12:20:54;;;;;;;;;;;19.10;99.90;;;;;;7322448;19;9198;-83
2023/08/26 12:23:25;;;;;;;;;;;19.40;99.90;;;;;;7322791;19;9458;-83
2023/08/26 12:25:54;;;;;;;;;;;19.70;99.90;;;;;;7322031;19;9516;-83
2023/08/26 12:28:25;;;;;;;;;;;20.00;99.90;;;;;;7322369;19;9575;-83
2023/08/26 12:30:54;;;;;;;;;;;20.20;99.90;;;;;;7322454;19;9280;-83
2023/08/26 12:33:23;;;;;;;;;;;20.50;99.90;;;;;;7322279;19;9114;-83
2023/08/26 12:35:54;;;;;;;;;;;20.90;99.90;;;;;;7322115;19;9216;-83
2023/08/26 12:38:27;;;;;;;;;;;21.20;99.90;;;;;;7322130;19;11159;-83
2023/08/26 12:40:58;;;;;;;;;;;21.30;99.90;;;;;;7322364;19;9294;-83
2023/08/26 12:43:27;;;;;;;;;;;21.30;99.90;;;;;;7322084;19;10264;-83
2023/08/26 12:46:07;;;;;;;;;;;21.40;99.90;;;;;;7320859;19;9515;-83
2023/08/26 12:48:36;;;;;;;;;;;21.60;99.90;;;;;;7321877;19;9177;-83
2023/08/26 12:51:08;;;;;;;;;;;21.50;99.80;;;;;;7322302;19;9105;-83
2023/08/26 12:53:45;;;;;;;;;;;21.30;99.60;;;;;;7322443;19;9523;-83
2023/08/26 12:56:14;;;;;;;;;;;20.90;99.80;;;;;;7322420;19;9462;-83
2023/08/26 12:58:46;;;;;;;;;;;20.80;99.90;;;;;;7319916;19;9229;-83
2023/08/26 13:01:15;;;;;;;;;;;20.80;99.90;;;;;;7322069;19;9229;-83
2023/08/26 13:03:44;;;;;;;;;;;20.50;99.90;;;;;;7321593;19;9113;-83
2023/08/26 13:06:16;;;;;;;;;;;20.30;99.90;;;;;;7320334;19;9455;-83
2023/08/26 13:08:48;;;;;;;;;;;20.40;99.90;;;;;;7325689;19;9213;-83
2023/08/26 13:11:17;;;;;;;;;;;20.50;99.90;;;;;;7328519;19;9473;-83
2023/08/26 13:13:46;;;;;;;;;;;20.50;99.90;;;;;;7328560;19;9300;-83
2023/08/26 13:16:15;;;;;;;;;;;20.40;99.90;;;;;;7328354;19;9212;-83
2023/08/26 13:18:45;;;;;;;;;;;20.50;99.90;;;;;;7329370;19;9506;-83
2023/08/26 13:21:14;;;;;;;;;;;20.60;99.90;;;;;;7328631;19;9212;-83
2023/08/26 13:23:43;;;;;;;;;;;20.70;99.90;;;;;;7328295;19;9211;-83
2023/08/26 13:26:15;;;;;;;;;;;20.70;99.90;;;;;;7327089;19;9217;-83
2023/08/26 13:28:45;;;;;;;;;;;20.60;99.90;;;;;;7328651;19;9503;-83
2023/08/26 13:31:14;;;;;;;;;;;20.70;99.90;;;;;;7328212;19;9189;-83
2023/08/26 13:33:44;;;;;;;;;;;20.70;99.90;;;;;;7328467;19;9193;-83
2023/08/26 13:36:13;;;;;;;;;;;20.90;99.90;;;;;;7328261;19;9169;-83
2023/08/26 13:38:42;;;;;;;;;;;21.00;99.90;;;;;;7327871;19;9216;-83
2023/08/26 13:41:14;;;;;;;;;;;21.40;99.90;;;;;;7327713;19;9324;-83
2023/08/26 13:43:43;;;;;;;;;;;21.50;99.30;;;;;;7327736;19;9215;-83
2023/08/26 13:46:12;;;;;;;;;;;21.60;98.60;;;;;;7326409;19;9121;-83
2023/08/26 13:48:41;;;;;;;;;;;21.60;99.90;;;;;;7327407;19;10657;-83
2023/08/26 13:51:10;;;;;;;;;;;21.70;99.90;;;;;;7327339;19;9216;-83
2023/08/26 13:53:38;;;;;;;;;;;21.70;99.90;;;;;;7327397;19;8995;-83
2023/08/26 13:56:07;;;;;;;;;;;21.90;99.90;;;;;;7327293;19;9321;-83
2023/08/26 13:58:39;;;;;;;;;;;21.90;99.50;;;;;;7327061;19;9485;-83
2023/08/26 14:01:08;;;;;;;;;;;22.10;99.80;;;;;;7327064;19;9164;-83
2023/08/26 14:03:37;;;;;;;;;;;22.30;99.10;;;;;;7327054;19;9243;-83
2023/08/26 14:06:08;;;;;;;;;;;22.30;98.20;;;;;;7326473;19;9438;-83
2023/08/26 14:08:38;;;;;;;;;;;22.20;97.20;;;;;;7326048;19;9225;-83
2023/08/26 14:11:07;;;;;;;;;;;22.10;96.10;;;;;;7329531;19;9264;-83
2023/08/26 14:13:39;;;;;;;;;;;22.00;97.40;;;;;;7330775;19;9581;-83
2023/08/26 14:16:08;;;;;;;;;;;22.10;98.00;;;;;;7327171;19;9221;-83
2023/08/26 14:18:37;;;;;;;;;;;22.30;97.40;;;;;;7326016;19;9483;-83
2023/08/26 14:21:06;;;;;;;;;;;22.40;97.40;;;;;;7325874;19;9320;-83
2023/08/26 14:23:35;;;;;;;;;;;22.20;92.90;;;;;;7326323;19;9520;-83
2023/08/26 14:26:04;;;;;;;;;;;22.00;93.30;;;;;;7325069;19;9528;-83
2023/08/26 14:28:33;;;;;;;;;;;21.80;95.00;;;;;;7326004;19;9249;-83
2023/08/26 14:31:05;;;;;;;;;;;21.70;96.70;;;;;;7325990;19;9265;-83
2023/08/26 14:33:36;;;;;;;;;;;21.70;96.80;;;;;;7326281;19;9231;-83
2023/08/26 14:36:05;;;;;;;;;;;21.60;97.10;;;;;;7325935;19;9172;-83
2023/08/26 14:38:35;;;;;;;;;;;21.60;97.10;;;;;;7325797;19;9165;-83
2023/08/26 14:41:04;;;;;;;;;;;21.60;97.90;;;;;;7325801;19;9157;-84
2023/08/26 14:43:33;;;;;;;;;;;21.60;97.80;;;;;;7325664;19;9178;-83
2023/08/26 14:46:04;;;;;;;;;;;21.60;98.30;;;;;;7324789;19;9204;-83
2023/08/26 14:48:33;;;;;;;;;;;21.60;98.10;;;;;;7325331;19;9172;-83
2023/08/26 14:51:05;;;;;;;;;;;21.50;97.80;;;;;;7325405;19;9472;-83
2023/08/26 14:53:34;;;;;;;;;;;21.60;98.00;;;;;;7325205;19;9181;-83